logo
Search for airport 
image banner adimage banner adimage banner ad
image banner ad

LOGO - Niederoblarn

Located in District Liezen, Austria

ICAO - LOGO, IATA -

Data provided by Airmate  

General information

Coordinates: N47°28'44" E14°0'26"
Elevation is 2142 feet MSL.
 
Rated:
View ratings:
[VIEW]
View others Airports in Styria

Operational data

Special qualification required
Current time UTC:
Current local time:
Weather at : LOXA - Aigen ( 12 km )
TAF: TAF LOXA 150815Z 1509/1518 VRB03KT 9999 FEW070 SCT150 BKN210 BECMG 1509/1511 23007KT SCT050 BKN080 TEMPO 1511/1518 24012KT SHRA FEW025 SCT045TCU BKN050 PROB30 TEMPO 1511/1518 24012G28KT 4000 TSRA FEW005 SCT030CB BKN040
View NOTAMs / SUP AIP / TFR affecting this airport [VIEW]
Communications frequencies: [VIEW]

Runways:

RWY identifierQFULength (ft)Width (ft)SurfaceLDA (ft)
04239598ASPHALT
22239598ASPHALT

Airport contact information

Address: District Liezen Austria

Other aviation service providers

Aviation club (not for profit)

Alpenflugschule Club-Sportunion Niederöblarn

Alpenflugschule Club-Sportunion Niederöblarn
welcome@club-sportunion.at+433684–6066-29
+433684–6066-29

Ul Club Niederöblarn

Ul Club Niederöblarn

Union Alpenflugschule Niederöblarn

Union Alpenflugschule Niederöblarn

Satellite view of LOGO